Time;durP1;ratioP1;P1;durP2;ratioP2;P2;SDS_P1;SDS_P2;PMS_P1;PMS_P2;Temp;Humidity;BMP_temperature;BMP_pressure;BME280_temperature;BME280_humidity;BME280_pressure;Samples;Min_cycle;Max_cycle;Signal;HPM_P1;HPM_P2
2023/09/05 00:00:01;;;;;;;3.57;2.90;;;;;;;16.95;100.00;96409.78;5110029;28;24437;-69
2023/09/05 00:02:28;;;;;;;3.78;2.72;;;;;;;16.91;100.00;96403.97;5108066;28;24437;-69
2023/09/05 00:04:55;;;;;;;3.47;3.03;;;;;;;16.90;100.00;96397.88;5091893;28;24819;-69
2023/09/05 00:07:22;;;;;;;4.80;3.20;;;;;;;16.88;100.00;96401.56;5092013;28;24434;-69
2023/09/05 00:09:48;;;;;;;5.07;3.10;;;;;;;16.97;100.00;96403.47;5092890;28;24620;-69
2023/09/05 00:12:15;;;;;;;2.92;2.63;;;;;;;16.84;100.00;96400.97;5092839;28;24994;-69
2023/09/05 00:14:43;;;;;;;3.60;2.70;;;;;;;17.04;99.81;96388.94;5111781;28;24445;-69
2023/09/05 00:17:09;;;;;;;4.78;3.10;;;;;;;17.02;100.00;96401.34;5112528;28;24454;-69
2023/09/05 00:19:36;;;;;;;6.25;2.65;;;;;;;17.03;100.00;96389.06;5112757;28;24445;-69
2023/09/05 00:22:02;;;;;;;4.72;3.20;;;;;;;17.00;100.00;96394.53;5096549;28;24441;-69
2023/09/05 00:24:31;;;;;;;4.18;2.83;;;;;;;16.89;100.00;96404.06;5109908;28;24432;-69
2023/09/05 00:26:58;;;;;;;2.88;2.60;;;;;;;16.83;100.00;96390.63;5096136;28;24444;-69
2023/09/05 00:29:27;;;;;;;4.10;3.08;;;;;;;16.67;100.00;96396.19;5096375;28;25148;-69
2023/09/05 00:31:59;;;;;;;3.75;2.92;;;;;;;16.63;100.00;96395.59;5110326;28;24454;-70
2023/09/05 00:34:27;;;;;;;4.75;3.60;;;;;;;16.37;100.00;96399.38;5116711;28;24977;-70
2023/09/05 00:36:53;;;;;;;3.72;3.13;;;;;;;16.33;100.00;96404.00;5111413;28;24873;-69
2023/09/05 00:39:20;;;;;;;9.57;3.13;;;;;;;16.34;100.00;96391.75;5096027;28;24428;-70
2023/09/05 00:41:47;;;;;;;3.08;2.72;;;;;;;16.27;100.00;96393.16;5108827;28;24445;-70
2023/09/05 00:44:15;;;;;;;3.45;3.08;;;;;;;16.33;100.00;96393.53;5099968;28;24430;-69
2023/09/05 00:46:43;;;;;;;3.10;2.85;;;;;;;16.16;100.00;96389.56;5113541;28;24887;-69
2023/09/05 00:49:12;;;;;;;4.38;3.10;;;;;;;16.00;100.00;96388.25;5109748;28;24435;-69
2023/09/05 00:51:42;;;;;;;4.97;2.95;;;;;;;16.03;100.00;96388.00;5095330;28;24453;-69
2023/09/05 00:54:10;;;;;;;4.35;3.38;;;;;;;16.01;100.00;96385.50;5095508;28;24788;-68
2023/09/05 00:56:37;;;;;;;4.25;3.08;;;;;;;16.05;100.00;96381.69;5095258;28;24507;-69
2023/09/05 00:59:05;;;;;;;3.15;2.85;;;;;;;16.01;100.00;96387.28;5102789;28;24872;-69
2023/09/05 01:01:31;;;;;;;4.53;2.97;;;;;;;16.01;100.00;96382.88;5115727;28;24472;-68
2023/09/05 01:03:58;;;;;;;4.80;3.13;;;;;;;15.95;100.00;96383.38;5112860;28;24434;-69
2023/09/05 01:06:37;;;;;;;5.38;3.60;;;;;;;15.75;100.00;96384.00;5115590;28;25025;-68
2023/09/05 01:09:13;;;;;;;8.85;3.03;;;;;;;15.47;100.00;96376.38;5114004;28;24476;-69
2023/09/05 01:11:41;;;;;;;4.65;3.10;;;;;;;15.41;100.00;96384.63;5098905;27;24492;-68
2023/09/05 01:14:07;;;;;;;3.97;2.67;;;;;;;15.17;100.00;96379.41;5094576;28;24434;-69
2023/09/05 01:16:34;;;;;;;3.15;2.85;;;;;;;15.14;100.00;96387.47;5093185;28;24457;-69
2023/09/05 01:19:01;;;;;;;3.77;3.10;;;;;;;15.32;100.00;96387.09;5093236;28;24441;-69
2023/09/05 01:21:35;;;;;;;8.25;4.18;;;;;;;15.36;100.00;96391.16;5093390;28;25024;-69
2023/09/05 01:24:15;;;;;;;6.28;3.40;;;;;;;15.37;100.00;96384.97;5110422;28;24528;-69
2023/09/05 01:26:42;;;;;;;5.22;3.25;;;;;;;15.38;100.00;96384.03;5107645;28;24990;-68
2023/09/05 01:29:11;;;;;;;5.37;3.10;;;;;;;15.40;100.00;96388.19;5091473;28;24483;-69
2023/09/05 01:31:38;;;;;;;6.22;3.30;;;;;;;15.55;100.00;96383.66;5106708;28;24452;-69
2023/09/05 01:34:04;;;;;;;4.00;3.00;;;;;;;15.55;100.00;96385.44;5107652;28;24794;-69
2023/09/05 01:36:31;;;;;;;3.10;2.55;;;;;;;15.58;100.00;96383.44;5080894;28;24993;-69
2023/09/05 01:38:58;;;;;;;6.72;2.90;;;;;;;15.51;100.00;96384.00;5088059;28;24434;-69
2023/09/05 01:41:25;;;;;;;3.30;3.00;;;;;;;15.43;100.00;96387.16;5100890;28;24437;-69
2023/09/05 01:43:52;;;;;;;4.70;3.30;;;;;;;15.57;100.00;96388.75;5095228;28;24429;-68
2023/09/05 01:46:19;;;;;;;3.15;2.85;;;;;;;15.54;100.00;96389.00;5111953;28;24426;-69
2023/09/05 01:48:45;;;;;;;3.97;2.63;;;;;;;15.49;100.00;96387.53;5104638;28;24450;-69
2023/09/05 01:51:12;;;;;;;3.15;2.85;;;;;;;15.49;100.00;96387.53;5092911;28;25017;-69
2023/09/05 01:53:38;;;;;;;3.35;3.05;;;;;;;15.44;100.00;96387.03;5092258;28;24441;-69
2023/09/05 01:56:05;;;;;;;6.05;2.92;;;;;;;15.27;100.00;96383.97;5100781;28;24823;-70
2023/09/05 01:58:33;;;;;;;5.32;3.08;;;;;;;15.28;100.00;96383.88;5092284;28;24438;-69
2023/09/05 02:01:02;;;;;;;3.83;3.08;;;;;;;15.33;100.00;96381.75;5099173;28;24978;-69
2023/09/05 02:03:29;;;;;;;3.53;3.08;;;;;;;15.39;100.00;96383.94;5097486;28;24434;-69
2023/09/05 02:05:56;;;;;;;4.13;3.17;;;;;;;15.23;100.00;96376.34;5091945;28;25014;-69
2023/09/05 02:08:22;;;;;;;3.17;2.77;;;;;;;15.21;100.00;96374.81;5093769;28;25009;-69
2023/09/05 02:10:49;;;;;;;4.28;2.92;;;;;;;15.10;100.00;96370.34;5094287;28;24434;-69
2023/09/05 02:13:16;;;;;;;5.90;3.00;;;;;;;14.95;100.00;96374.06;5092827;28;24952;-68
2023/09/05 02:15:44;;;;;;;5.03;3.00;;;;;;;14.96;100.00;96373.94;5091807;28;24452;-69
2023/09/05 02:18:11;;;;;;;5.50;3.07;;;;;;;14.93;100.00;96370.72;5107289;28;24977;-69
2023/09/05 02:20:38;;;;;;;3.20;2.90;;;;;;;14.88;100.00;96380.66;5086775;28;24448;-69
2023/09/05 02:23:04;;;;;;;4.07;3.63;;;;;;;14.83;100.00;96374.91;5085041;28;25024;-69
2023/09/05 02:25:31;;;;;;;7.15;3.97;;;;;;;14.77;100.00;96377.00;5112140;28;24803;-68
2023/09/05 02:27:58;;;;;;;9.02;4.60;;;;;;;14.75;100.00;96376.28;5112461;28;24852;-69
2023/09/05 02:30:24;;;;;;;8.00;4.80;;;;;;;14.52;100.00;96377.88;5095133;27;24465;-69
2023/09/05 02:32:52;;;;;;;7.85;4.10;;;;;;;14.26;100.00;96381.38;5093526;28;24799;-69
2023/09/05 02:35:20;;;;;;;7.93;4.38;;;;;;;14.22;100.00;96375.56;5111490;28;24440;-68
2023/09/05 02:37:46;;;;;;;5.60;3.85;;;;;;;14.31;100.00;96376.69;5112208;28;24531;-69
2023/09/05 02:40:13;;;;;;;5.13;3.72;;;;;;;14.32;100.00;96382.75;5104891;28;24441;-68
2023/09/05 02:42:39;;;;;;;6.95;3.83;;;;;;;14.27;100.00;96378.66;5098963;28;24433;-69
2023/09/05 02:45:07;;;;;;;5.20;3.90;;;;;;;14.27;100.00;96377.84;5091895;28;24445;-69
2023/09/05 02:47:33;;;;;;;8.85;4.47;;;;;;;14.05;100.00;96383.66;5092180;28;24433;-69
2023/09/05 02:50:01;;;;;;;8.00;4.90;;;;;;;13.96;100.00;96376.47;5093593;28;24438;-68
2023/09/05 02:52:29;;;;;;;7.32;4.05;;;;;;;13.99;100.00;96377.09;5111772;28;25009;-69
2023/09/05 02:54:55;;;;;;;5.53;3.97;;;;;;;13.80;100.00;96382.69;5086005;28;24445;-69
2023/09/05 02:57:22;;;;;;;5.18;3.50;;;;;;;13.79;100.00;96375.84;5087349;28;24447;-68
2023/09/05 02:59:52;;;;;;;7.47;5.32;;;;;;;14.06;100.00;96381.91;5095201;28;25007;-68
2023/09/05 03:02:18;;;;;;;7.50;5.47;;;;;;;14.02;100.00;96376.91;5091185;28;24996;-68
2023/09/05 03:04:45;;;;;;;6.38;4.93;;;;;;;13.90;100.00;96371.66;5091994;28;24438;-69
2023/09/05 03:07:15;;;;;;;5.80;4.30;;;;;;;13.85;100.00;96373.75;5091688;28;24441;-69
2023/09/05 03:09:41;;;;;;;5.40;4.03;;;;;;;13.73;100.00;96368.41;5082757;28;24995;-68
2023/09/05 03:12:08;;;;;;;3.97;3.17;;;;;;;13.67;100.00;96366.22;5094362;28;24441;-68
2023/09/05 03:14:34;;;;;;;4.43;3.45;;;;;;;13.66;100.00;96356.75;5088964;28;24446;-69
2023/09/05 03:17:02;;;;;;;4.07;2.83;;;;;;;13.67;100.00;96363.59;5089011;28;24446;-68
2023/09/05 03:19:28;;;;;;;3.20;2.90;;;;;;;13.78;100.00;96358.53;5091462;28;24477;-68
2023/09/05 03:21:55;;;;;;;4.90;3.10;;;;;;;13.81;100.00;96357.50;5108018;28;24440;-68
2023/09/05 03:24:25;;;;;;;4.45;2.80;;;;;;;13.98;100.00;96359.81;5092103;28;24982;-69
2023/09/05 03:26:51;;;;;;;3.80;3.00;;;;;;;13.96;100.00;96358.25;5098404;28;24993;-69
2023/09/05 03:29:18;;;;;;;5.78;3.47;;;;;;;13.91;100.00;96362.94;5110636;28;24993;-68
2023/09/05 03:31:44;;;;;;;6.07;3.22;;;;;;;13.69;100.00;96372.16;5101156;28;24441;-68
2023/09/05 03:34:11;;;;;;;3.33;2.90;;;;;;;13.48;100.00;96363.97;5091117;28;24426;-68
2023/09/05 03:36:37;;;;;;;4.35;3.08;;;;;;;13.58;100.00;96366.00;5090722;28;24441;-68
2023/09/05 03:39:04;;;;;;;4.47;3.40;;;;;;;13.53;100.00;96363.66;5090788;28;25001;-69
2023/09/05 03:41:32;;;;;;;4.77;3.10;;;;;;;13.51;100.00;96361.19;5090989;28;24437;-69
2023/09/05 03:43:59;;;;;;;4.70;3.25;;;;;;;13.38;100.00;96359.47;5091934;28;24430;-69
2023/09/05 03:46:25;;;;;;;7.43;3.17;;;;;;;13.42;100.00;96356.59;5074590;28;24430;-68
2023/09/05 03:48:53;;;;;;;6.80;3.08;;;;;;;13.39;100.00;96359.38;5090576;28;24434;-68
2023/09/05 03:51:19;;;;;;;4.10;3.47;;;;;;;13.38;100.00;96365.50;5091353;28;24429;-69
2023/09/05 03:53:46;;;;;;;3.72;2.78;;;;;;;13.50;100.00;96363.88;5092107;28;24430;-70
2023/09/05 03:56:12;;;;;;;4.07;2.80;;;;;;;13.53;100.00;96369.72;5093594;28;24541;-68
2023/09/05 03:58:40;;;;;;;6.25;2.80;;;;;;;13.62;100.00;96368.28;5093251;28;24457;-68
2023/09/05 04:01:13;;;;;;;5.10;3.10;;;;;;;13.56;100.00;96363.47;5096695;28;24437;-68
2023/09/05 04:03:39;;;;;;;4.47;2.95;;;;;;;13.58;100.00;96369.44;5109907;28;24795;-68
2023/09/05 04:06:06;;;;;;;4.57;3.25;;;;;;;13.57;100.00;96365.13;5105089;28;24478;-69
2023/09/05 04:08:32;;;;;;;4.63;3.40;;;;;;;13.64;100.00;96370.78;5115706;28;24433;-68
2023/09/05 04:11:00;;;;;;;3.75;3.05;;;;;;;13.61;100.00;96373.56;5100938;28;24465;-69
2023/09/05 04:13:27;;;;;;;7.05;3.50;;;;;;;13.66;100.00;96371.53;5095776;28;24434;-68
2023/09/05 04:15:56;;;;;;;8.27;4.78;;;;;;;13.81;100.00;96365.31;5091822;28;24430;-68
2023/09/05 04:18:22;;;;;;;4.78;3.60;;;;;;;13.60;100.00;96369.31;5095535;28;24450;-68
2023/09/05 04:20:57;;;;;;;7.35;4.80;;;;;;;13.37;100.00;96368.22;5096395;28;24434;-71
2023/09/05 04:23:24;;;;;;;5.97;3.97;;;;;;;13.21;100.00;96368.31;5089359;28;24502;-72
2023/09/05 04:25:56;;;;;;;7.25;4.32;;;;;;;13.07;100.00;96375.22;5112189;28;24441;-71
2023/09/05 04:28:22;;;;;;;12.30;4.45;;;;;;;13.04;100.00;96369.38;5081921;28;24800;-71
2023/09/05 04:30:49;;;;;;;7.60;4.57;;;;;;;13.07;100.00;96370.03;5094284;28;24441;-71
2023/09/05 04:33:17;;;;;;;6.25;3.35;;;;;;;12.99;100.00;96363.66;5088798;28;24437;-70
2023/09/05 04:35:43;;;;;;;4.63;3.45;;;;;;;12.87;100.00;96374.78;5093934;28;24431;-71
2023/09/05 04:38:10;;;;;;;7.90;4.10;;;;;;;12.89;100.00;96371.19;5088252;28;24454;-70
2023/09/05 04:40:36;;;;;;;7.82;4.28;;;;;;;12.92;100.00;96371.00;5090754;28;24426;-70
2023/09/05 04:43:03;;;;;;;8.90;4.97;;;;;;;12.98;100.00;96377.59;5093575;28;25001;-71
2023/09/05 04:45:30;;;;;;;6.50;3.75;;;;;;;12.95;100.00;96370.81;5088390;28;24503;-71
2023/09/05 04:47:56;;;;;;;10.25;3.25;;;;;;;12.97;100.00;96375.91;5094203;28;24437;-71
2023/09/05 04:50:24;;;;;;;6.32;3.42;;;;;;;12.93;100.00;96369.22;5096661;28;25018;-71
2023/09/05 04:52:51;;;;;;;4.10;3.08;;;;;;;12.83;100.00;96368.97;5084414;28;24517;-71
2023/09/05 04:55:17;;;;;;;3.67;3.20;;;;;;;12.88;100.00;96368.69;5093578;28;24437;-71
2023/09/05 04:57:44;;;;;;;6.72;3.50;;;;;;;12.91;100.00;96373.69;5083001;28;24816;-70
2023/09/05 05:00:13;;;;;;;4.30;3.65;;;;;;;12.97;100.00;96370.69;5091986;28;24438;-70
2023/09/05 05:02:40;;;;;;;9.18;4.55;;;;;;;12.98;100.00;96370.63;5094453;28;24438;-70
2023/09/05 05:05:07;;;;;;;9.88;5.28;;;;;;;13.11;100.00;96364.63;5093491;28;25005;-69
2023/09/05 05:07:36;;;;;;;5.53;4.00;;;;;;;13.03;100.00;96365.13;5088516;28;24422;-70
2023/09/05 05:10:03;;;;;;;6.03;3.70;;;;;;;12.98;100.00;96372.38;5090694;28;24497;-69
2023/09/05 05:12:29;;;;;;;5.82;3.25;;;;;;;13.02;100.00;96368.66;5082866;28;24427;-70
2023/09/05 05:14:56;;;;;;;4.60;2.78;;;;;;;12.87;100.00;96369.59;5093901;28;25009;-70
2023/09/05 05:17:22;;;;;;;5.97;3.30;;;;;;;12.73;100.00;96373.91;5092763;28;25005;-69
2023/09/05 05:19:49;;;;;;;4.25;3.33;;;;;;;12.76;100.00;96376.31;5087692;28;24513;-70
2023/09/05 05:22:15;;;;;;;7.30;3.97;;;;;;;12.93;100.00;96367.44;5090121;28;24419;-70
2023/09/05 05:24:43;;;;;;;5.55;3.40;;;;;;;13.11;100.00;96373.25;5095514;28;25001;-70
2023/09/05 05:27:10;;;;;;;10.37;3.93;;;;;;;13.24;100.00;96366.41;5098169;28;24514;-70
2023/09/05 05:29:36;;;;;;;6.45;4.40;;;;;;;13.07;100.00;96371.78;5092430;28;24438;-70
2023/09/05 05:32:03;;;;;;;5.03;4.20;;;;;;;12.94;100.00;96368.28;5085175;28;25218;-69
2023/09/05 05:34:31;;;;;;;10.80;4.43;;;;;;;13.07;100.00;96372.63;5089684;28;24804;-69
2023/09/05 05:36:57;;;;;;;8.27;4.18;;;;;;;13.20;100.00;96367.50;5098722;28;24436;-69
2023/09/05 05:39:25;;;;;;;22.88;5.70;;;;;;;13.31;100.00;96370.28;5090140;28;24469;-69
2023/09/05 05:41:53;;;;;;;16.42;4.75;;;;;;;13.50;100.00;96376.91;5098995;22;24456;-71
2023/09/05 05:44:19;;;;;;;14.10;4.18;;;;;;;13.62;100.00;96376.09;5042489;28;24431;-69
2023/09/05 05:46:46;;;;;;;8.68;4.22;;;;;;;13.91;100.00;96374.19;5043675;28;24484;-69
2023/09/05 05:49:12;;;;;;;5.97;3.70;;;;;;;14.19;100.00;96378.38;5058902;28;24976;-70
2023/09/05 05:51:40;;;;;;;9.73;3.85;;;;;;;14.38;100.00;96385.75;5055815;28;24442;-69
2023/09/05 05:54:07;;;;;;;8.57;4.20;;;;;;;14.55;100.00;96386.44;5072059;28;25010;-70
2023/09/05 05:56:34;;;;;;;7.13;4.20;;;;;;;14.53;100.00;96389.13;5069399;28;24478;-70
2023/09/05 05:59:02;;;;;;;5.50;4.13;;;;;;;14.52;100.00;96387.47;5059649;28;24541;-69
2023/09/05 06:01:28;;;;;;;8.90;4.40;;;;;;;14.65;100.00;96390.06;5059602;28;24438;-69
2023/09/05 06:03:55;;;;;;;6.40;3.90;;;;;;;14.75;100.00;96391.91;5062921;28;24437;-70
2023/09/05 06:06:21;;;;;;;6.47;3.78;;;;;;;14.93;100.00;96395.00;5071755;28;24443;-70
2023/09/05 06:08:48;;;;;;;6.13;4.10;;;;;;;15.10;100.00;96390.41;5071683;28;24887;-71
2023/09/05 06:11:14;;;;;;;4.80;3.50;;;;;;;15.22;100.00;96390.34;5069784;28;24439;-69
2023/09/05 06:13:41;;;;;;;14.40;3.78;;;;;;;15.38;100.00;96392.69;5071636;28;24437;-70
2023/09/05 06:16:09;;;;;;;6.40;3.83;;;;;;;15.59;100.00;96398.13;5072055;28;24434;-71
2023/09/05 06:18:35;;;;;;;5.43;3.70;;;;;;;15.69;100.00;96396.56;5036893;28;24458;-72
2023/09/05 06:21:02;;;;;;;5.80;3.22;;;;;;;15.84;100.00;96392.00;5052101;28;24435;-71
2023/09/05 06:23:30;;;;;;;4.78;3.28;;;;;;;15.87;100.00;96389.16;5054726;28;24439;-71
2023/09/05 06:25:56;;;;;;;9.00;4.00;;;;;;;15.66;100.00;96388.94;5051510;28;25078;-71
2023/09/05 06:28:24;;;;;;;5.22;3.17;;;;;;;15.64;100.00;96390.78;5051526;28;24797;-72
2023/09/05 06:30:51;;;;;;;4.07;3.25;;;;;;;15.47;100.00;96393.81;5051711;28;24450;-71
2023/09/05 06:33:19;;;;;;;6.22;2.90;;;;;;;15.60;100.00;96388.53;5065227;28;24434;-72
2023/09/05 06:35:46;;;;;;;6.43;2.95;;;;;;;15.52;100.00;96385.66;5052725;28;24438;-72
2023/09/05 06:38:14;;;;;;;3.43;2.77;;;;;;;15.66;100.00;96385.50;5055515;28;24539;-72
2023/09/05 06:40:41;;;;;;;3.42;3.13;;;;;;;15.69;100.00;96390.50;5067720;28;24446;-71
2023/09/05 06:43:09;;;;;;;3.55;2.67;;;;;;;15.82;100.00;96398.25;5059988;28;24450;-72
2023/09/05 06:45:35;;;;;;;5.87;2.80;;;;;;;15.91;100.00;96403.66;5053273;28;24611;-71
2023/09/05 06:48:02;;;;;;;3.10;2.80;;;;;;;16.13;100.00;96412.47;5052448;28;24439;-71
2023/09/05 06:50:30;;;;;;;2.70;2.50;;;;;;;16.27;100.00;96401.84;5051213;28;24797;-69
2023/09/05 06:52:57;;;;;;;5.47;2.38;;;;;;;16.27;100.00;96409.66;5068229;28;24814;-68
2023/09/05 06:55:23;;;;;;;3.30;2.70;;;;;;;16.37;100.00;96402.81;5055187;28;25034;-68
2023/09/05 06:57:50;;;;;;;3.40;2.72;;;;;;;16.45;100.00;96392.59;5051118;28;24438;-68
2023/09/05 07:00:16;;;;;;;5.03;2.83;;;;;;;16.76;100.00;96394.66;5050781;28;24438;-68
2023/09/05 07:02:43;;;;;;;4.25;2.63;;;;;;;16.86;100.00;96395.63;5055437;28;24789;-69
2023/09/05 07:05:09;;;;;;;4.80;2.40;;;;;;;16.96;100.00;96393.94;5051176;28;24435;-69
2023/09/05 07:07:37;;;;;;;3.83;2.42;;;;;;;17.18;100.00;96393.91;5051009;28;24419;-68
2023/09/05 07:10:05;;;;;;;3.53;2.58;;;;;;;17.31;100.00;96390.31;5050712;28;24450;-68
2023/09/05 07:12:31;;;;;;;3.72;2.20;;;;;;;17.39;100.00;96411.47;5050601;28;24426;-68
2023/09/05 07:15:00;;;;;;;2.55;2.35;;;;;;;17.37;100.00;96406.38;5060144;28;24435;-68
2023/09/05 07:17:26;;;;;;;3.08;2.20;;;;;;;17.24;100.00;96407.47;5056079;28;24445;-68
2023/09/05 07:19:53;;;;;;;4.50;2.77;;;;;;;17.55;100.00;96405.88;5060762;28;24447;-68
2023/09/05 07:22:20;;;;;;;4.32;2.33;;;;;;;17.76;99.08;96401.53;5057752;28;24440;-68
2023/09/05 07:24:48;;;;;;;4.20;2.17;;;;;;;17.81;98.34;96401.16;5056628;28;24447;-68
2023/09/05 07:27:16;;;;;;;4.75;2.10;;;;;;;17.91;98.11;96399.47;5053445;28;24435;-68
2023/09/05 07:29:43;;;;;;;3.35;2.40;;;;;;;18.18;95.14;96400.75;5050463;28;24534;-72
2023/09/05 07:32:10;;;;;;;4.22;2.63;;;;;;;18.32;94.09;96390.78;5060156;28;24492;-72
2023/09/05 07:34:37;;;;;;;2.35;2.03;;;;;;;18.52;91.49;96386.47;5069664;28;24443;-73
2023/09/05 07:37:03;;;;;;;2.72;2.08;;;;;;;18.77;91.12;96393.09;5069776;28;24435;-72
2023/09/05 07:39:30;;;;;;;2.38;2.05;;;;;;;18.86;90.19;96394.09;5043963;28;24813;-71
2023/09/05 07:41:58;;;;;;;2.55;2.17;;;;;;;19.01;89.92;96384.91;5045648;28;24473;-72
2023/09/05 07:44:25;;;;;;;4.10;2.72;;;;;;;19.22;89.15;96392.69;5070323;28;24445;-72
2023/09/05 07:46:52;;;;;;;3.05;2.20;;;;;;;19.42;87.06;96390.13;5056485;28;24442;-71
2023/09/05 07:49:19;;;;;;;3.20;2.42;;;;;;;19.57;86.64;96396.63;5051533;28;24427;-72
2023/09/05 07:51:47;;;;;;;2.75;1.95;;;;;;;19.74;85.03;96401.25;5050978;28;24446;-72
2023/09/05 07:54:16;;;;;;;3.55;2.22;;;;;;;19.89;82.99;96401.66;5050246;28;24439;-69
2023/09/05 07:56:42;;;;;;;3.20;2.20;;;;;;;20.06;81.40;96400.16;5050309;28;25014;-69
2023/09/05 07:59:10;;;;;;;5.55;2.15;;;;;;;20.14;82.94;96392.41;5050008;28;24451;-70
2023/09/05 08:01:37;;;;;;;5.70;2.53;;;;;;;20.17;82.22;96399.16;5054640;28;24446;-70
2023/09/05 08:04:03;;;;;;;3.92;2.10;;;;;;;20.27;82.30;96403.44;5062205;28;24435;-70
2023/09/05 08:06:30;;;;;;;3.92;1.92;;;;;;;20.22;83.99;96405.66;5061280;28;24446;-71
2023/09/05 08:08:57;;;;;;;3.30;2.13;;;;;;;20.34;81.91;96411.59;5055322;28;25002;-70
2023/09/05 08:11:24;;;;;;;2.80;2.00;;;;;;;20.45;81.09;96405.34;5050120;28;24886;-70
2023/09/05 08:13:51;;;;;;;2.78;2.20;;;;;;;20.53;81.53;96405.50;5049791;28;24436;-70
2023/09/05 08:16:19;;;;;;;3.30;2.22;;;;;;;20.57;81.06;96406.88;5060438;28;24445;-71
2023/09/05 08:18:46;;;;;;;3.30;2.37;;;;;;;20.83;80.59;96401.81;5052174;28;24473;-71
2023/09/05 08:21:12;;;;;;;4.60;2.20;;;;;;;21.00;79.12;96402.84;5059986;28;24492;-71
2023/09/05 08:23:39;;;;;;;2.58;1.98;;;;;;;21.10;76.71;96397.53;5069417;28;24446;-71
2023/09/05 08:26:10;;;;;;;2.88;2.20;;;;;;;21.09;77.03;96401.13;5061362;28;24435;-71
2023/09/05 08:28:42;;;;;;;2.75;1.98;;;;;;;21.25;78.12;96402.19;5061130;28;24435;-72
2023/09/05 08:31:09;;;;;;;4.05;2.08;;;;;;;21.48;76.74;96392.09;5052841;28;24439;-73
2023/09/05 08:33:36;;;;;;;3.35;1.85;;;;;;;21.40;74.10;96393.81;5059427;28;24431;-72
2023/09/05 08:36:05;;;;;;;3.65;1.92;;;;;;;21.46;75.82;96390.56;5057180;28;25030;-72
2023/09/05 08:38:31;;;;;;;3.33;1.83;;;;;;;21.77;75.06;96391.06;5058420;28;24543;-72
2023/09/05 08:41:00;;;;;;;2.90;1.95;;;;;;;22.35;72.34;96385.28;5059111;28;24443;-73
2023/09/05 08:43:27;;;;;;;2.65;2.10;;;;;;;22.53;69.90;96382.59;5051491;28;24773;-73
2023/09/05 08:45:55;;;;;;;3.10;1.92;;;;;;;22.53;69.15;96390.53;5051293;28;24434;-72
2023/09/05 08:48:22;;;;;;;2.40;1.83;;;;;;;22.74;67.90;96381.41;5053505;28;24992;-73
2023/09/05 08:50:50;;;;;;;2.80;1.70;;;;;;;23.01;68.07;96383.88;5072294;28;24454;-72
2023/09/05 08:53:23;;;;;;;3.58;2.00;;;;;;;23.24;68.54;96380.66;5066388;28;24438;-73
2023/09/05 08:55:50;;;;;;;4.80;2.22;;;;;;;23.76;66.41;96376.03;5053190;28;24450;-73
2023/09/05 08:58:18;;;;;;;4.30;1.90;;;;;;;24.19;66.56;96381.19;5055238;28;24434;-69
2023/09/05 09:00:45;;;;;;;15.27;2.57;;;;;;;24.54;65.40;96385.31;5054417;28;24442;-73
2023/09/05 09:03:12;;;;;;;2.40;1.53;;;;;;;24.56;60.64;96380.69;5071367;28;24437;-73
2023/09/05 09:05:38;;;;;;;5.10;1.70;;;;;;;24.74;62.22;96381.31;5061711;28;24431;-74
2023/09/05 09:08:07;;;;;;;1.70;1.42;;;;;;;24.70;62.61;96382.66;5052918;28;24489;-77
2023/09/05 09:10:33;;;;;;;3.25;1.88;;;;;;;24.89;62.68;96370.03;5068575;28;24442;-80
2023/09/05 09:13:15;;;;;;;2.10;1.60;;;;;;;25.03;58.75;96374.56;5033380;28;24781;-78
2023/09/05 09:15:43;;;;;;;4.25;1.70;;;;;;;25.18;58.52;96377.38;5033973;28;24420;-77
2023/09/05 09:18:12;;;;;;;2.38;1.42;;;;;;;25.25;57.53;96370.38;5033983;28;24423;-77
2023/09/05 09:20:43;;;;;;;2.85;1.65;;;;;;;25.26;62.71;96378.19;5056739;28;25060;-77
2023/09/05 09:23:11;;;;;;;2.47;1.65;;;;;;;25.35;59.63;96369.16;5072690;28;24460;-77
2023/09/05 09:25:47;;;;;;;2.67;1.40;;;;;;;25.50;64.56;96382.50;5072712;28;24947;-76
2023/09/05 09:28:22;;;;;;;2.03;1.77;;;;;;;25.49;59.47;96369.44;5073064;28;24415;-77
2023/09/05 09:30:56;;;;;;;2.42;1.52;;;;;;;25.42;60.04;96363.19;5073005;28;24423;-77
2023/09/05 09:33:23;;;;;;;1.90;1.63;;;;;;;25.29;61.57;96361.09;5072241;28;24411;-78
2023/09/05 09:36:05;;;;;;;2.85;1.58;;;;;;;25.20;64.42;96357.66;5056840;28;24437;-78
2023/09/05 09:38:33;;;;;;;3.08;1.60;;;;;;;25.52;61.31;96363.78;5071075;28;24466;-77
2023/09/05 09:41:02;;;;;;;1.95;1.45;;;;;;;25.75;60.01;96355.84;5072262;28;24993;-76
2023/09/05 09:43:29;;;;;;;4.30;1.88;;;;;;;25.41;57.22;96362.34;5072383;28;24492;-78
2023/09/05 09:45:57;;;;;;;3.28;1.60;;;;;;;25.63;59.57;96362.56;5073101;28;24422;-78
2023/09/05 09:48:26;;;;;;;5.45;1.52;;;;;;;25.59;64.94;96364.75;5073654;28;24441;-78
2023/09/05 09:50:54;;;;;;;6.93;1.75;;;;;;;25.79;58.35;96354.53;5073000;28;24427;-78
2023/09/05 09:53:29;;;;;;;2.03;1.60;;;;;;;25.67;62.23;96356.72;5072131;28;24414;-77
2023/09/05 09:55:58;;;;;;;2.20;1.47;;;;;;;25.88;57.66;96342.00;5071754;28;24438;-77
2023/09/05 09:58:26;;;;;;;2.30;1.70;;;;;;;26.02;54.80;96338.59;5072169;28;24488;-77
2023/09/05 10:00:55;;;;;;;1.92;1.45;;;;;;;26.08;54.39;96334.41;5061353;28;24463;-75
2023/09/05 10:03:24;;;;;;;10.45;1.65;;;;;;;26.26;58.79;96341.03;5050226;28;24634;-75
2023/09/05 10:05:53;;;;;;;2.45;1.63;;;;;;;26.13;54.94;96340.81;5048584;28;24435;-73
2023/09/05 10:08:21;;;;;;;2.97;1.45;;;;;;;26.47;60.34;96332.38;5070287;28;24431;-75
2023/09/05 10:10:48;;;;;;;2.38;1.50;;;;;;;26.50;57.29;96336.50;5061376;28;24435;-71
2023/09/05 10:13:17;;;;;;;2.47;1.45;;;;;;;26.59;54.39;96337.25;5051625;28;24836;-71
2023/09/05 10:15:48;;;;;;;2.78;1.45;;;;;;;26.24;56.44;96331.59;5051879;28;24431;-71
2023/09/05 10:18:17;;;;;;;2.08;1.20;;;;;;;26.22;50.78;96339.75;5052911;28;24450;-71
2023/09/05 10:20:46;;;;;;;2.00;1.30;;;;;;;26.13;49.63;96330.19;5051839;28;24447;-72
2023/09/05 10:23:13;;;;;;;2.03;1.38;;;;;;;26.28;57.37;96320.41;5050964;28;24438;-72
2023/09/05 10:25:41;;;;;;;1.65;1.40;;;;;;;26.44;56.69;96322.09;5051157;28;24435;-71
2023/09/05 10:28:07;;;;;;;1.90;1.35;;;;;;;26.15;52.00;96330.84;5051626;28;24430;-71
2023/09/05 10:30:41;;;;;;;9.48;1.50;;;;;;;26.41;60.40;96329.63;5051618;28;24411;-74
2023/09/05 10:33:08;;;;;;;2.55;1.50;;;;;;;26.44;51.41;96332.72;5051274;28;24410;-71
2023/09/05 10:35:35;;;;;;;2.85;1.42;;;;;;;26.60;56.65;96329.09;5055517;28;24442;-71
2023/09/05 10:38:04;;;;;;;3.85;1.45;;;;;;;26.66;58.81;96331.03;5051568;28;24436;-71
2023/09/05 10:40:35;;;;;;;2.80;1.20;;;;;;;26.76;54.99;96331.56;5062349;28;24459;-71
2023/09/05 10:43:04;;;;;;;6.50;1.50;;;;;;;26.59;47.89;96337.25;5064833;28;24437;-71
2023/09/05 10:45:33;;;;;;;2.50;1.55;;;;;;;26.50;50.03;96333.84;5056365;28;24439;-71
2023/09/05 10:48:08;;;;;;;1.70;1.40;;;;;;;26.41;45.45;96340.25;5060532;28;24442;-70
2023/09/05 10:51:05;;;;;;;3.55;1.20;;;;;;;26.29;45.53;96327.41;5071064;28;24435;-70
2023/09/05 10:53:33;;;;;;;1.70;1.30;;;;;;;26.32;46.01;96328.84;5062192;28;24843;-71
2023/09/05 10:56:00;;;;;;;3.47;1.27;;;;;;;26.29;46.94;96323.91;5070534;28;25086;-71
2023/09/05 10:58:42;;;;;;;5.88;1.38;;;;;;;26.41;46.01;96322.47;5070294;28;24434;-71
2023/09/05 11:01:52;;;;;;;3.08;1.20;;;;;;;26.53;47.27;96326.34;5070059;28;24859;-72
2023/09/05 11:04:27;;;;;;;3.95;1.50;;;;;;;26.44;49.19;96331.88;5067920;28;24497;-71
2023/09/05 11:07:02;;;;;;;3.83;1.48;;;;;;;26.53;58.17;96325.53;5069485;28;25023;-73
2023/09/05 11:09:29;;;;;;;2.40;1.30;;;;;;;26.62;49.73;96326.25;5069969;28;24434;-75
2023/09/05 11:11:56;;;;;;;1.88;1.30;;;;;;;26.61;52.32;96321.97;5062513;28;24466;-74
2023/09/05 11:14:34;;;;;;;2.55;1.40;;;;;;;26.69;52.37;96320.03;5058346;28;24431;-73
2023/09/05 11:17:01;;;;;;;1.92;1.33;;;;;;;26.66;47.14;96320.41;5053676;28;24435;-73
2023/09/05 11:19:35;;;;;;;2.23;1.30;;;;;;;26.56;53.38;96317.19;5046770;28;24455;-74
2023/09/05 11:22:10;;;;;;;2.38;1.30;;;;;;;26.44;53.60;96318.59;5030412;28;24840;-73
2023/09/05 11:24:38;;;;;;;1.25;1.15;;;;;;;26.30;55.74;96321.06;5030789;28;24528;-73
2023/09/05 11:27:06;;;;;;;3.30;1.57;;;;;;;26.32;48.14;96323.53;5030685;28;25123;-73
2023/09/05 11:29:35;;;;;;;2.65;1.40;;;;;;;26.40;56.94;96320.81;5040421;28;20747;-74